Wetterdaten: Woche 06.10.08 - 12.10.08 (KW41)
Datum Zeit Temperatur Luftfeuchte Luftdruck Niederschlag Windrichtung Wind
06.10.2008 00:00 9,3 C 74 % 1013,9 hPa 0,0 l/m SW 13,0 km/h (3 Bft)
06.10.2008 01:00 9,1 C 77 % 1014,1 hPa 0,0 l/m SW 18,6 km/h (3 Bft)
06.10.2008 02:00 10,2 C 74 % 1014,6 hPa 0,0 l/m W 18,6 km/h (3 Bft)
06.10.2008 03:00 11,0 C 73 % 1014,8 hPa 0,0 l/m W 18,5 km/h (3 Bft)
06.10.2008 04:00 11,1 C 74 % 1014,8 hPa 0,0 l/m W-SW 19,3 km/h (3 Bft)
06.10.2008 05:00 11,1 C 76 % 1015,0 hPa 0,0 l/m W 19,7 km/h (3 Bft)
06.10.2008 06:00 10,8 C 78 % 1015,1 hPa 0,0 l/m W-SW 14,5 km/h (3 Bft)
06.10.2008 07:00 10,8 C 78 % 1015,4 hPa 0,0 l/m SW 14,8 km/h (3 Bft)
06.10.2008 08:00 11,2 C 77 % 1015,8 hPa 0,0 l/m S-SW 18,6 km/h (3 Bft)
06.10.2008 09:00 12,1 C 77 % 1016,4 hPa 0,0 l/m SW 16,4 km/h (3 Bft)
06.10.2008 10:00 13,2 C 78 % 1016,9 hPa 0,0 l/m W 23,2 km/h (4 Bft)
06.10.2008 11:00 14,4 C 76 % 1017,1 hPa 0,0 l/m SW 20,8 km/h (4 Bft)
06.10.2008 12:00 16,2 C 69 % 1017,1 hPa 0,0 l/m W-SW 25,7 km/h (4 Bft)
06.10.2008 13:00 17,2 C 63 % 1016,9 hPa 0,0 l/m W-SW 23,4 km/h (4 Bft)
06.10.2008 14:00 17,4 C 63 % 1016,5 hPa 0,0 l/m W-NW 23,8 km/h (4 Bft)
06.10.2008 15:00 16,6 C 67 % 1016,8 hPa 0,0 l/m W 20,5 km/h (4 Bft)
06.10.2008 16:00 16,2 C 70 % 1017,0 hPa 0,0 l/m W 19,4 km/h (3 Bft)
06.10.2008 17:00 15,5 C 73 % 1017,2 hPa 0,0 l/m W 14,6 km/h (3 Bft)
06.10.2008 18:00 14,5 C 81 % 1017,4 hPa 0,2 l/m W 13,8 km/h (3 Bft)
06.10.2008 19:00 12,7 C 93 % 1017,7 hPa 1,2 l/m W-NW 2,9 km/h (1 Bft)
06.10.2008 20:00 11,7 C 96 % 1018,0 hPa 0,0 l/m N 0,0 km/h (0 Bft)
06.10.2008 21:00 10,7 C 97 % 1018,0 hPa 0,0 l/m W 0,8 km/h (0 Bft)
06.10.2008 22:00 11,1 C 96 % 1018,2 hPa 0,0 l/m SO 1,6 km/h (1 Bft)
06.10.2008 23:00 11,4 C 97 % 1018,3 hPa 0,2 l/m SW 8,8 km/h (2 Bft)
07.10.2008 00:00 12,0 C 97 % 1018,3 hPa 1,2 l/m W 11,5 km/h (2 Bft)
07.10.2008 01:00 11,9 C 97 % 1018,4 hPa 0,2 l/m S-SW 8,0 km/h (2 Bft)
07.10.2008 02:00 11,8 C 98 % 1018,3 hPa 0,2 l/m SW 6,5 km/h (2 Bft)
07.10.2008 03:00 11,8 C 98 % 1018,0 hPa 0,4 l/m SW 7,4 km/h (2 Bft)
07.10.2008 04:00 11,9 C 98 % 1017,9 hPa 0,0 l/m SW 8,9 km/h (2 Bft)
07.10.2008 05:00 11,8 C 98 % 1017,8 hPa 0,0 l/m SW 9,7 km/h (2 Bft)
07.10.2008 06:00 11,6 C 98 % 1017,8 hPa 0,0 l/m SW 6,7 km/h (2 Bft)
07.10.2008 07:00 11,0 C 98 % 1017,6 hPa 0,0 l/m SW 10,1 km/h (2 Bft)
07.10.2008 08:00 11,0 C 98 % 1017,6 hPa 0,0 l/m SW 11,7 km/h (2 Bft)
07.10.2008 09:00 11,9 C 98 % 1017,4 hPa 0,0 l/m SW 14,8 km/h (3 Bft)
07.10.2008 10:00 13,7 C 92 % 1017,2 hPa 0,0 l/m W 13,3 km/h (3 Bft)
07.10.2008 11:00 15,3 C 86 % 1016,9 hPa 0,0 l/m SW 10,2 km/h (2 Bft)
07.10.2008 12:00 16,2 C 79 % 1016,4 hPa 0,0 l/m S-SW 10,9 km/h (2 Bft)
07.10.2008 13:00 16,8 C 74 % 1015,8 hPa 0,0 l/m S-SW 9,7 km/h (2 Bft)
07.10.2008 14:00 17,1 C 71 % 1015,3 hPa 0,0 l/m S-SW 13,8 km/h (3 Bft)
07.10.2008 15:00 17,2 C 66 % 1015,2 hPa 0,0 l/m S-SW 9,4 km/h (2 Bft)
07.10.2008 16:00 16,9 C 69 % 1014,8 hPa 0,0 l/m SW 6,3 km/h (2 Bft)
07.10.2008 17:00 16,6 C 72 % 1014,2 hPa 0,0 l/m S-SO 2,7 km/h (1 Bft)
07.10.2008 18:00 14,3 C 86 % 1013,9 hPa 0,0 l/m N 0,0 km/h (0 Bft)
07.10.2008 19:00 12,7 C 92 % 1014,1 hPa 0,0 l/m N 0,0 km/h (0 Bft)
07.10.2008 20:00 12,0 C 94 % 1014,1 hPa 0,0 l/m N 0,1 km/h (0 Bft)
07.10.2008 21:00 11,5 C 95 % 1014,0 hPa 0,0 l/m N 0,0 km/h (0 Bft)
07.10.2008 22:00 10,9 C 96 % 1013,8 hPa 0,0 l/m N 0,0 km/h (0 Bft)
07.10.2008 23:00 10,6 C 97 % 1014,0 hPa 0,0 l/m N 0,0 km/h (0 Bft)
08.10.2008 00:00 10,3 C 97 % 1014,0 hPa 0,0 l/m N 0,0 km/h (0 Bft)
08.10.2008 01:00 9,6 C 97 % 1013,9 hPa 0,0 l/m N 0,0 km/h (0 Bft)
08.10.2008 02:00 9,6 C 97 % 1014,0 hPa 0,0 l/m N 0,0 km/h (0 Bft)
08.10.2008 03:00 9,1 C 97 % 1014,0 hPa 0,0 l/m N 0,0 km/h (0 Bft)
08.10.2008 04:00 8,7 C 98 % 1013,9 hPa 0,0 l/m N 0,0 km/h (0 Bft)
08.10.2008 05:00 8,6 C 97 % 1014,3 hPa 0,0 l/m N 0,0 km/h (0 Bft)
08.10.2008 06:00 8,6 C 97 % 1014,5 hPa 0,0 l/m N 0,0 km/h (0 Bft)
08.10.2008 07:00 8,6 C 97 % 1014,4 hPa 0,0 l/m N 0,0 km/h (0 Bft)
08.10.2008 08:00 9,2 C 98 % 1014,7 hPa 0,0 l/m N 0,0 km/h (0 Bft)
08.10.2008 09:00 10,8 C 99 % 1015,0 hPa 0,0 l/m N 0,0 km/h (0 Bft)
08.10.2008 10:00 12,8 C 94 % 1015,2 hPa 0,0 l/m N 0,1 km/h (0 Bft)
08.10.2008 11:00 15,1 C 85 % 1015,1 hPa 0,0 l/m O-SO 4,5 km/h (1 Bft)
08.10.2008 12:00 17,2 C 75 % 1014,9 hPa 0,0 l/m NO 5,2 km/h (1 Bft)
08.10.2008 13:00 18,6 C 65 % 1014,5 hPa 0,0 l/m O-SO 9,1 km/h (2 Bft)
08.10.2008 14:00 19,1 C 63 % 1014,4 hPa 0,0 l/m N 8,6 km/h (2 Bft)
08.10.2008 15:00 18,6 C 65 % 1014,4 hPa 0,0 l/m N 9,1 km/h (2 Bft)
08.10.2008 16:00 18,4 C 65 % 1014,3 hPa 0,0 l/m NO 7,6 km/h (2 Bft)
08.10.2008 17:00 17,8 C 71 % 1014,6 hPa 0,0 l/m NO 5,1 km/h (1 Bft)
08.10.2008 18:00 15,2 C 84 % 1015,1 hPa 0,0 l/m N-NO 3,7 km/h (1 Bft)
08.10.2008 19:00 14,0 C 87 % 1016,0 hPa 0,0 l/m N-NO 4,5 km/h (1 Bft)
08.10.2008 20:00 13,4 C 88 % 1016,8 hPa 0,0 l/m N-NW 6,0 km/h (2 Bft)
08.10.2008 21:00 13,5 C 87 % 1017,4 hPa 0,0 l/m N-NW 5,1 km/h (1 Bft)
08.10.2008 22:00 12,9 C 90 % 1018,0 hPa 0,0 l/m N-NW 7,8 km/h (2 Bft)
08.10.2008 23:00 13,0 C 91 % 1018,4 hPa 0,0 l/m N-NW 6,0 km/h (2 Bft)
09.10.2008 00:00 13,1 C 91 % 1018,7 hPa 0,0 l/m N 7,2 km/h (2 Bft)
09.10.2008 01:00 12,9 C 92 % 1019,2 hPa 0,0 l/m N-NW 7,2 km/h (2 Bft)
09.10.2008 02:00 12,4 C 94 % 1019,9 hPa 0,0 l/m N 6,0 km/h (2 Bft)
09.10.2008 03:00 11,8 C 95 % 1020,3 hPa 0,0 l/m N 5,1 km/h (1 Bft)
09.10.2008 04:00 11,1 C 97 % 1021,0 hPa 0,0 l/m N 5,5 km/h (1 Bft)
09.10.2008 05:00 11,1 C 97 % 1021,5 hPa 0,0 l/m N-NO 4,1 km/h (1 Bft)
09.10.2008 06:00 11,4 C 97 % 1022,0 hPa 0,0 l/m NO 6,4 km/h (2 Bft)
09.10.2008 07:00 11,7 C 96 % 1022,9 hPa 0,0 l/m N-NO 5,9 km/h (2 Bft)
09.10.2008 08:00 11,9 C 96 % 1023,9 hPa 0,0 l/m NO 6,5 km/h (2 Bft)
09.10.2008 09:00 12,3 C 95 % 1024,5 hPa 0,0 l/m O-NO 6,0 km/h (2 Bft)
09.10.2008 10:00 13,0 C 91 % 1025,3 hPa 0,0 l/m NO 5,9 km/h (2 Bft)
09.10.2008 11:00 14,2 C 83 % 1026,0 hPa 0,0 l/m O-SO 7,3 km/h (2 Bft)
09.10.2008 12:00 15,4 C 77 % 1026,6 hPa 0,0 l/m SO 7,2 km/h (2 Bft)
09.10.2008 13:00 16,3 C 74 % 1026,8 hPa 0,0 l/m NO 5,5 km/h (1 Bft)
09.10.2008 14:00 17,1 C 69 % 1026,7 hPa 0,0 l/m O-NO 7,5 km/h (2 Bft)
09.10.2008 15:00 17,6 C 67 % 1026,9 hPa 0,0 l/m NO 6,0 km/h (2 Bft)
09.10.2008 16:00 17,7 C 66 % 1027,1 hPa 0,0 l/m N-NO 7,1 km/h (2 Bft)
09.10.2008 17:00 17,5 C 66 % 1027,5 hPa 0,0 l/m NO 8,0 km/h (2 Bft)
09.10.2008 18:00 15,6 C 81 % 1028,0 hPa 0,0 l/m N 9,9 km/h (2 Bft)
09.10.2008 19:00 13,6 C 88 % 1028,9 hPa 0,2 l/m N 6,0 km/h (2 Bft)
09.10.2008 20:00 12,6 C 91 % 1029,7 hPa 0,0 l/m N 7,1 km/h (2 Bft)
09.10.2008 21:00 11,5 C 94 % 1030,3 hPa 0,0 l/m N 7,8 km/h (2 Bft)
09.10.2008 22:00 11,2 C 95 % 1031,2 hPa 0,0 l/m N-NO 6,1 km/h (2 Bft)
09.10.2008 23:00 11,6 C 96 % 1031,7 hPa 0,0 l/m N-NO 6,0 km/h (2 Bft)
10.10.2008 00:00 10,8 C 96 % 1031,5 hPa 0,0 l/m O-SO 0,0 km/h (0 Bft)
10.10.2008 01:00 11,5 C 96 % 1031,4 hPa 0,0 l/m N-NO 6,1 km/h (2 Bft)
10.10.2008 02:00 11,3 C 95 % 1031,2 hPa 0,0 l/m N 5,1 km/h (1 Bft)
10.10.2008 03:00 11,1 C 96 % 1031,2 hPa 0,0 l/m N-NO 7,6 km/h (2 Bft)
10.10.2008 04:00 11,2 C 95 % 1031,6 hPa 0,0 l/m N 5,5 km/h (1 Bft)
10.10.2008 05:00 11,3 C 96 % 1032,0 hPa 0,0 l/m N-NO 5,7 km/h (1 Bft)
10.10.2008 06:00 11,5 C 94 % 1032,2 hPa 0,0 l/m O-NO 2,4 km/h (1 Bft)
10.10.2008 07:00 11,6 C 94 % 1032,2 hPa 0,0 l/m O-SO 3,1 km/h (1 Bft)
10.10.2008 08:00 11,7 C 92 % 1032,8 hPa 0,0 l/m O-SO 4,3 km/h (1 Bft)
10.10.2008 09:00 11,9 C 92 % 1033,1 hPa 0,0 l/m SO 5,5 km/h (1 Bft)
10.10.2008 10:00 12,4 C 88 % 1033,1 hPa 0,0 l/m O-SO 8,7 km/h (2 Bft)
10.10.2008 11:00 12,7 C 84 % 1033,1 hPa 0,0 l/m O-NO 7,2 km/h (2 Bft)
10.10.2008 12:00 13,1 C 82 % 1032,8 hPa 0,0 l/m O-SO 5,5 km/h (1 Bft)
10.10.2008 13:00 13,3 C 82 % 1032,6 hPa 0,0 l/m O-NO 6,1 km/h (2 Bft)
10.10.2008 14:00 13,5 C 81 % 1032,2 hPa 0,0 l/m O-SO 8,6 km/h (2 Bft)
10.10.2008 15:00 13,7 C 80 % 1032,0 hPa 0,0 l/m SO 8,4 km/h (2 Bft)
10.10.2008 16:00 13,9 C 80 % 1031,6 hPa 0,0 l/m NO 6,5 km/h (2 Bft)
10.10.2008 17:00 13,8 C 80 % 1031,7 hPa 0,0 l/m O-SO 7,9 km/h (2 Bft)
10.10.2008 18:00 13,2 C 81 % 1031,7 hPa 0,0 l/m O-SO 8,2 km/h (2 Bft)
10.10.2008 19:00 12,4 C 83 % 1032,0 hPa 0,0 l/m NO 3,5 km/h (1 Bft)
10.10.2008 20:00 11,6 C 86 % 1032,1 hPa 0,0 l/m N 0,8 km/h (0 Bft)
10.10.2008 21:00 10,2 C 90 % 1032,1 hPa 0,0 l/m NW 2,7 km/h (1 Bft)
10.10.2008 22:00 9,4 C 92 % 1032,1 hPa 0,0 l/m N 1,5 km/h (1 Bft)
10.10.2008 23:00 8,6 C 91 % 1032,2 hPa 0,0 l/m N 0,0 km/h (0 Bft)
11.10.2008 00:00 7,9 C 94 % 1032,1 hPa 0,0 l/m N 0,0 km/h (0 Bft)
11.10.2008 01:00 8,2 C 96 % 1031,9 hPa 0,0 l/m N 0,5 km/h (0 Bft)
11.10.2008 02:00 8,7 C 97 % 1031,7 hPa 0,0 l/m N 0,0 km/h (0 Bft)
11.10.2008 03:00 9,2 C 96 % 1031,3 hPa 0,0 l/m N 1,7 km/h (1 Bft)
11.10.2008 04:00 9,6 C 97 % 1031,0 hPa 0,0 l/m N 0,0 km/h (0 Bft)
11.10.2008 05:00 10,1 C 97 % 1030,8 hPa 0,0 l/m N 0,8 km/h (0 Bft)
11.10.2008 06:00 10,3 C 95 % 1030,6 hPa 0,0 l/m N 0,0 km/h (0 Bft)
11.10.2008 07:00 10,4 C 95 % 1030,7 hPa 0,0 l/m N 1,5 km/h (1 Bft)
11.10.2008 08:00 10,5 C 95 % 1031,1 hPa 0,0 l/m SW 8,2 km/h (2 Bft)
11.10.2008 09:00 10,9 C 93 % 1031,5 hPa 0,0 l/m W 8,0 km/h (2 Bft)
11.10.2008 10:00 11,4 C 91 % 1031,7 hPa 0,0 l/m W 9,1 km/h (2 Bft)
11.10.2008 11:00 13,0 C 87 % 1031,6 hPa 0,0 l/m SW 11,1 km/h (2 Bft)
11.10.2008 12:00 14,6 C 82 % 1031,4 hPa 0,0 l/m S-SW 13,7 km/h (3 Bft)
11.10.2008 13:00 16,2 C 77 % 1030,8 hPa 0,0 l/m SW 12,2 km/h (2 Bft)
11.10.2008 14:00 17,5 C 73 % 1030,3 hPa 0,0 l/m S 12,4 km/h (3 Bft)
11.10.2008 15:00 17,8 C 69 % 1029,9 hPa 0,0 l/m W-SW 11,8 km/h (2 Bft)
11.10.2008 16:00 17,8 C 66 % 1029,6 hPa 0,0 l/m W 8,4 km/h (2 Bft)
11.10.2008 17:00 17,2 C 70 % 1029,3 hPa 0,0 l/m W 5,1 km/h (1 Bft)
11.10.2008 18:00 15,5 C 80 % 1029,4 hPa 0,0 l/m N 0,1 km/h (0 Bft)
11.10.2008 19:00 13,6 C 84 % 1029,7 hPa 0,0 l/m N 0,0 km/h (0 Bft)
11.10.2008 20:00 11,9 C 88 % 1030,0 hPa 0,0 l/m N 0,0 km/h (0 Bft)
11.10.2008 21:00 10,8 C 91 % 1030,1 hPa 0,0 l/m N 0,0 km/h (0 Bft)
11.10.2008 22:00 9,8 C 92 % 1030,0 hPa 0,0 l/m N 0,1 km/h (0 Bft)
11.10.2008 23:00 9,1 C 92 % 1030,0 hPa 0,0 l/m N 0,0 km/h (0 Bft)
12.10.2008 00:00 8,4 C 92 % 1029,7 hPa 0,0 l/m N 0,0 km/h (0 Bft)
12.10.2008 01:00 7,8 C 93 % 1029,5 hPa 0,0 l/m N 0,0 km/h (0 Bft)
12.10.2008 02:00 7,4 C 95 % 1029,5 hPa 0,0 l/m N 0,0 km/h (0 Bft)
12.10.2008 03:00 7,1 C 95 % 1029,5 hPa 0,0 l/m N 0,0 km/h (0 Bft)
12.10.2008 04:00 6,4 C 94 % 1029,5 hPa 0,0 l/m N 0,0 km/h (0 Bft)
12.10.2008 05:00 5,6 C 95 % 1029,4 hPa 0,0 l/m N 0,0 km/h (0 Bft)
12.10.2008 06:00 5,2 C 96 % 1029,4 hPa 0,0 l/m N 0,0 km/h (0 Bft)
12.10.2008 07:00 5,0 C 96 % 1029,5 hPa 0,0 l/m N 0,0 km/h (0 Bft)
12.10.2008 08:00 4,8 C 97 % 1029,8 hPa 0,0 l/m N 0,0 km/h (0 Bft)
12.10.2008 09:00 5,8 C 98 % 1030,1 hPa 0,0 l/m N 1,2 km/h (1 Bft)
12.10.2008 10:00 8,6 C 99 % 1030,0 hPa 0,0 l/m S-SW 3,7 km/h (1 Bft)
12.10.2008 11:00 12,5 C 94 % 1029,6 hPa 0,0 l/m S-SO 6,7 km/h (2 Bft)
12.10.2008 12:00 16,4 C 73 % 1029,3 hPa 0,0 l/m S 5,5 km/h (1 Bft)
12.10.2008 13:00 18,6 C 61 % 1028,7 hPa 0,0 l/m SW 6,6 km/h (2 Bft)
12.10.2008 14:00 19,4 C 56 % 1028,2 hPa 0,0 l/m SW 6,4 km/h (2 Bft)
12.10.2008 15:00 19,8 C 50 % 1027,7 hPa 0,0 l/m S-SO 4,9 km/h (1 Bft)
12.10.2008 16:00 19,7 C 50 % 1026,9 hPa 0,0 l/m O-SO 4,5 km/h (1 Bft)
12.10.2008 17:00 18,0 C 66 % 1026,5 hPa 0,0 l/m N 1,1 km/h (0 Bft)
12.10.2008 18:00 16,1 C 74 % 1026,2 hPa 0,0 l/m N 1,1 km/h (0 Bft)
12.10.2008 19:00 14,3 C 78 % 1026,2 hPa 0,0 l/m N 0,1 km/h (0 Bft)
12.10.2008 20:00 12,3 C 83 % 1026,3 hPa 0,0 l/m N 0,0 km/h (0 Bft)
12.10.2008 21:00 11,0 C 87 % 1026,3 hPa 0,0 l/m N 0,0 km/h (0 Bft)
12.10.2008 22:00 9,9 C 90 % 1026,3 hPa 0,0 l/m N 0,0 km/h (0 Bft)
12.10.2008 23:00 9,1 C 91 % 1026,0 hPa 0,0 l/m N 0,0 km/h (0 Bft)
Min-Datum _ 12.10.08 12.10.08 06.10.08 - - 06.10.08
_ Min-Zeit 07:55 15:35 00:00 - - 19:55
Minimum _ 4,8 C 47 % 1013,7 hPa - - 0,0 km/h (0 Bft)
Max-Datum _ 12.10.08 11.10.08 10.10.08 06.10.08 - 06.10.08
_ Max-Zeit 16:00 05:15 10:15 19:00 - 12:45
Maximum _ 20,0 C 100 % 1033,3 hPa 1,2 l/m - 43,5 km/h
SW (6 Bft)
Durchschnitt _ 12,6 C 86 % 1023,4 hPa #3,8 l/m SW 6,3 km/h (2 Bft)